WMSAWIMM

Guest
Details From WMSA - Kuala Lumpur S Abdul Aziz Shah
To WIMM - Medan/Polonia
Flight Number -
Tags generated
Created
Modified
Stats Distance 175 nm / 324 km
Max Altitude 20,900 ft / 6,370 m
Waypoints 3
Social Downloads 2
Likes 0
Share VATSIM

Download

Looking for another format? Having issues loading an existing format? Contact us
Advertisement - Login to hide

Notes

Basic altitude profile: - Ascent Rate: 2500ft/min - Ascent Speed: 250kts - Cruise Altitude: 35000ft - Cruise Speed: 420kts - Descent Rate: 1500ft/min - Descent Speed: 250kts Options: - Use NATs: yes - Use PACOTS: yes - Use low airways: yes - Use high airways: yes

Route

WMSA PUGER WIMM

ID Type Via Altitude Latitude Longitude Leg Dist Tot Dist Heading (true) Name
O WMSA APT - 0 ft / 0 m 3.13058˚ 101.54933˚ - 0 nm - Kuala Lumpur S Abdul Aziz Shah
PUGER FIX - 20,900 ft / 6,370 m 3.40000˚ 100.29167˚ 77 nm 77 nm 282° / 282° -
O WIMM APT - 0 ft / 0 m 3.55806˚ 98.67172˚ 97 nm 174 nm 276° / 276° Medan/Polonia

Altitude Profile

Advertisement - Login to hide

Weather


0- 5 10 15 20 25 30 35+ Temperature / ° C

Clouds and Precipitation
Forecast for 2017-12-18 00:00 UTC. Updated 26 minutes ago

Ground ~20,000 ft ~40,000 ft Winds

WMSA

Details ICAO WMSA (SZB)
Name Kuala Lumpur S Abdul Aziz Shah
Region Malaysia (Peninsular Malaysia)
Timezone Asia/Kuala_Lumpur (UTC+8.0)
Stats Elevation 90 ft / 27 m (AMSL)
Location 3.130583° 101.549334°
Runways 1
Magnetic Variation 0.027° W

METAR

WMSA 172300Z 00000KT 8000 FEW017CB BKN280 24/22 Q1011

Decode

TAF

Not found

Departure Runways

ID Width Length Bearing (true) Bearing (mag) Surface Threshold Offset Overrun Length
15 148 ft / 45 m 12,450 ft / 3,795 m 149.84° 149.87° Asphalt 0 ft / 0 m 200 ft / 61 m
33 148 ft / 45 m 12,450 ft / 3,795 m 329.84° 329.87° Asphalt 0 ft / 0 m 200 ft / 61 m

WIMM

Details ICAO WIMM (MES)
Name Medan/Polonia
Region Indonesia
Timezone Asia/Jakarta (UTC+7.0)
Stats Elevation 90 ft / 27 m (AMSL)
Location 3.558057° 98.671716°
Runways 1
Magnetic Variation 0.321° W

METAR

WIMM 172330Z 00000KT 3500 BR FEW018 23/23 Q1010

Decode

TAF

Not found

Destination Runways

ID Width Length Bearing (true) Bearing (mag) Surface Threshold Offset Overrun Length
05 148 ft / 45 m 9,531 ft / 2,905 m 46.55° 46.87° Asphalt 910 ft / 277 m 197 ft / 60 m
23 148 ft / 45 m 9,531 ft / 2,905 m 226.55° 226.87° Asphalt 0 ft / 0 m 325 ft / 99 m

Approach Navaids

Runway Type Ident Frequency Range Bearing (true) Bearing (mag) Slope Elevation
05 Localiser IMDN 110.10 MHz 18 nm / 33 km 47.68° 48.00° - 90 ft / 27 m (AMSL)
05 Glidescope IMDN 110.10 MHz 10 nm / 19 km 46.55° 46.87° 3.00° 90 ft / 27 m (AMSL)

Popular Alternatives